sensor_id;sensor_type;location;lat;lon;timestamp;P1;durP1;ratioP1;P2;durP2;ratioP2
61638;SDS011;47544;52.484;4.658;2024-03-02T00:00:01;2.28;;;1.00;;
61638;SDS011;47544;52.484;4.658;2024-03-02T00:00:13;3.20;;;1.13;;
61638;SDS011;47544;52.484;4.658;2024-03-02T00:00:24;4.03;;;1.15;;
61638;SDS011;47544;52.484;4.658;2024-03-02T00:00:36;3.88;;;1.08;;
61638;SDS011;47544;52.484;4.658;2024-03-02T00:00:50;4.05;;;0.93;;
61638;SDS011;47544;52.484;4.658;2024-03-02T00:01:04;3.28;;;1.05;;
61638;SDS011;47544;52.484;4.658;2024-03-02T00:01:15;2.60;;;0.93;;
61638;SDS011;47544;52.484;4.658;2024-03-02T00:01:26;2.35;;;0.85;;
61638;SDS011;47544;52.484;4.658;2024-03-02T00:01:39;1.85;;;0.65;;
61638;SDS011;47544;52.484;4.658;2024-03-02T00:01:50;2.10;;;0.73;;
61638;SDS011;47544;52.484;4.658;2024-03-02T00:02:04;2.78;;;0.95;;
61638;SDS011;47544;52.484;4.658;2024-03-02T00:02:16;2.42;;;0.90;;
61638;SDS011;47544;52.484;4.658;2024-03-02T00:02:27;2.20;;;0.80;;
61638;SDS011;47544;52.484;4.658;2024-03-02T00:02:41;2.47;;;0.80;;
61638;SDS011;47544;52.484;4.658;2024-03-02T00:02:52;2.65;;;0.95;;
61638;SDS011;47544;52.484;4.658;2024-03-02T00:03:03;2.58;;;0.93;;
61638;SDS011;47544;52.484;4.658;2024-03-02T00:03:14;2.35;;;0.95;;
61638;SDS011;47544;52.484;4.658;2024-03-02T00:03:26;2.42;;;1.00;;
61638;SDS011;47544;52.484;4.658;2024-03-02T00:03:38;2.67;;;1.00;;
61638;SDS011;47544;52.484;4.658;2024-03-02T00:03:49;2.47;;;0.80;;
61638;SDS011;47544;52.484;4.658;2024-03-02T00:04:03;2.45;;;0.80;;
61638;SDS011;47544;52.484;4.658;2024-03-02T00:04:14;2.05;;;0.80;;
61638;SDS011;47544;52.484;4.658;2024-03-02T00:04:25;2.33;;;0.85;;
61638;SDS011;47544;52.484;4.658;2024-03-02T00:04:36;2.58;;;0.90;;
61638;SDS011;47544;52.484;4.658;2024-03-02T00:04:48;4.05;;;1.02;;
61638;SDS011;47544;52.484;4.658;2024-03-02T00:04:59;3.85;;;1.10;;
61638;SDS011;47544;52.484;4.658;2024-03-02T00:05:10;3.50;;;1.10;;
61638;SDS011;47544;52.484;4.658;2024-03-02T00:05:22;2.05;;;1.00;;
61638;SDS011;47544;52.484;4.658;2024-03-02T00:05:33;2.45;;;0.93;;
61638;SDS011;47544;52.484;4.658;2024-03-02T00:05:48;3.25;;;1.00;;
61638;SDS011;47544;52.484;4.658;2024-03-02T00:05:59;3.17;;;1.02;;
61638;SDS011;47544;52.484;4.658;2024-03-02T00:06:10;2.80;;;0.98;;
61638;SDS011;47544;52.484;4.658;2024-03-02T00:06:21;2.42;;;0.90;;
61638;SDS011;47544;52.484;4.658;2024-03-02T00:06:32;2.70;;;0.85;;
61638;SDS011;47544;52.484;4.658;2024-03-02T00:06:43;2.72;;;0.90;;
61638;SDS011;47544;52.484;4.658;2024-03-02T00:06:54;2.58;;;0.82;;
61638;SDS011;47544;52.484;4.658;2024-03-02T00:07:07;2.35;;;0.80;;
61638;SDS011;47544;52.484;4.658;2024-03-02T00:07:18;2.15;;;0.85;;
61638;SDS011;47544;52.484;4.658;2024-03-02T00:07:29;2.63;;;1.02;;
61638;SDS011;47544;52.484;4.658;2024-03-02T00:07:40;3.38;;;1.15;;
61638;SDS011;47544;52.484;4.658;2024-03-02T00:07:53;3.53;;;1.00;;
61638;SDS011;47544;52.484;4.658;2024-03-02T00:08:04;3.70;;;1.00;;
61638;SDS011;47544;52.484;4.658;2024-03-02T00:08:17;3.05;;;1.10;;
61638;SDS011;47544;52.484;4.658;2024-03-02T00:08:30;2.97;;;1.13;;
61638;SDS011;47544;52.484;4.658;2024-03-02T00:08:41;3.15;;;1.00;;
61638;SDS011;47544;52.484;4.658;2024-03-02T00:08:57;2.85;;;0.90;;
61638;SDS011;47544;52.484;4.658;2024-03-02T00:09:08;2.33;;;0.80;;
61638;SDS011;47544;52.484;4.658;2024-03-02T00:09:20;2.25;;;0.70;;
61638;SDS011;47544;52.484;4.658;2024-03-02T00:09:31;2.33;;;0.68;;
61638;SDS011;47544;52.484;4.658;2024-03-02T00:09:42;2.40;;;0.77;;
61638;SDS011;47544;52.484;4.658;2024-03-02T00:09:53;2.33;;;0.93;;
61638;SDS011;47544;52.484;4.658;2024-03-02T00:10:05;2.55;;;0.85;;
61638;SDS011;47544;52.484;4.658;2024-03-02T00:10:19;2.50;;;0.70;;
61638;SDS011;47544;52.484;4.658;2024-03-02T00:10:32;1.98;;;0.73;;
61638;SDS011;47544;52.484;4.658;2024-03-02T00:10:47;2.38;;;0.75;;
61638;SDS011;47544;52.484;4.658;2024-03-02T00:10:59;3.05;;;0.70;;
61638;SDS011;47544;52.484;4.658;2024-03-02T00:11:13;2.92;;;0.80;;
61638;SDS011;47544;52.484;4.658;2024-03-02T00:11:26;1.60;;;0.70;;
61638;SDS011;47544;52.484;4.658;2024-03-02T00:11:38;1.45;;;0.60;;
61638;SDS011;47544;52.484;4.658;2024-03-02T00:11:49;1.50;;;0.60;;
61638;SDS011;47544;52.484;4.658;2024-03-02T00:12:01;2.67;;;0.75;;
61638;SDS011;47544;52.484;4.658;2024-03-02T00:12:14;3.60;;;0.80;;
61638;SDS011;47544;52.484;4.658;2024-03-02T00:12:26;3.05;;;0.70;;
61638;SDS011;47544;52.484;4.658;2024-03-02T00:12:37;2.85;;;0.70;;
61638;SDS011;47544;52.484;4.658;2024-03-02T00:12:48;3.22;;;0.70;;
61638;SDS011;47544;52.484;4.658;2024-03-02T00:12:59;2.60;;;0.60;;
61638;SDS011;47544;52.484;4.658;2024-03-02T00:13:11;2.05;;;0.50;;
61638;SDS011;47544;52.484;4.658;2024-03-02T00:13:23;1.60;;;0.57;;
61638;SDS011;47544;52.484;4.658;2024-03-02T00:13:35;1.50;;;0.55;;
61638;SDS011;47544;52.484;4.658;2024-03-02T00:13:48;1.45;;;0.50;;
61638;SDS011;47544;52.484;4.658;2024-03-02T00:13:59;1.40;;;0.50;;
61638;SDS011;47544;52.484;4.658;2024-03-02T00:14:10;2.30;;;0.50;;
61638;SDS011;47544;52.484;4.658;2024-03-02T00:14:22;2.60;;;0.60;;
61638;SDS011;47544;52.484;4.658;2024-03-02T00:14:36;2.13;;;0.70;;
61638;SDS011;47544;52.484;4.658;2024-03-02T00:14:47;1.80;;;0.70;;
61638;SDS011;47544;52.484;4.658;2024-03-02T00:14:59;1.77;;;0.70;;
61638;SDS011;47544;52.484;4.658;2024-03-02T00:15:20;1.50;;;0.60;;
61638;SDS011;47544;52.484;4.658;2024-03-02T00:15:40;1.60;;;0.60;;
61638;SDS011;47544;52.484;4.658;2024-03-02T00:15:52;1.73;;;0.60;;
61638;SDS011;47544;52.484;4.658;2024-03-02T00:16:04;1.60;;;0.50;;
61638;SDS011;47544;52.484;4.658;2024-03-02T00:16:16;1.50;;;0.55;;
61638;SDS011;47544;52.484;4.658;2024-03-02T00:16:29;2.10;;;0.60;;
61638;SDS011;47544;52.484;4.658;2024-03-02T00:16:41;1.98;;;0.63;;
61638;SDS011;47544;52.484;4.658;2024-03-02T00:16:52;2.40;;;0.70;;
61638;SDS011;47544;52.484;4.658;2024-03-02T00:17:03;2.15;;;0.70;;
61638;SDS011;47544;52.484;4.658;2024-03-02T00:17:16;3.47;;;0.80;;
61638;SDS011;47544;52.484;4.658;2024-03-02T00:17:33;3.78;;;0.75;;
61638;SDS011;47544;52.484;4.658;2024-03-02T00:17:45;2.55;;;0.50;;
61638;SDS011;47544;52.484;4.658;2024-03-02T00:17:56;2.53;;;0.50;;
61638;SDS011;47544;52.484;4.658;2024-03-02T00:18:10;1.33;;;0.50;;
61638;SDS011;47544;52.484;4.658;2024-03-02T00:18:24;1.52;;;0.50;;
61638;SDS011;47544;52.484;4.658;2024-03-02T00:18:35;2.10;;;0.50;;
61638;SDS011;47544;52.484;4.658;2024-03-02T00:18:47;2.22;;;0.50;;
61638;SDS011;47544;52.484;4.658;2024-03-02T00:19:01;1.60;;;0.40;;
61638;SDS011;47544;52.484;4.658;2024-03-02T00:19:13;1.52;;;0.50;;
61638;SDS011;47544;52.484;4.658;2024-03-02T00:19:24;1.60;;;0.50;;
61638;SDS011;47544;52.484;4.658;2024-03-02T00:19:38;1.88;;;0.50;;
61638;SDS011;47544;52.484;4.658;2024-03-02T00:19:50;2.03;;;0.60;;
61638;SDS011;47544;52.484;4.658;2024-03-02T00:20:01;1.92;;;0.60;;
61638;SDS011;47544;52.484;4.658;2024-03-02T00:20:14;1.67;;;0.50;;
61638;SDS011;47544;52.484;4.658;2024-03-02T00:20:27;1.80;;;0.43;;
61638;SDS011;47544;52.484;4.658;2024-03-02T00:20:39;1.50;;;0.40;;
61638;SDS011;47544;52.484;4.658;2024-03-02T00:20:52;1.00;;;0.40;;
61638;SDS011;47544;52.484;4.658;2024-03-02T00:21:03;1.25;;;0.40;;
61638;SDS011;47544;52.484;4.658;2024-03-02T00:21:20;1.52;;;0.45;;
61638;SDS011;47544;52.484;4.658;2024-03-02T00:21:33;2.25;;;0.50;;
61638;SDS011;47544;52.484;4.658;2024-03-02T00:21:44;2.42;;;0.47;;
61638;SDS011;47544;52.484;4.658;2024-03-02T00:21:55;2.38;;;0.52;;
61638;SDS011;47544;52.484;4.658;2024-03-02T00:22:06;1.90;;;0.50;;
61638;SDS011;47544;52.484;4.658;2024-03-02T00:22:18;2.00;;;0.50;;
61638;SDS011;47544;52.484;4.658;2024-03-02T00:22:29;2.08;;;0.40;;
61638;SDS011;47544;52.484;4.658;2024-03-02T00:22:40;2.50;;;0.40;;
61638;SDS011;47544;52.484;4.658;2024-03-02T00:22:51;1.73;;;0.50;;
61638;SDS011;47544;52.484;4.658;2024-03-02T00:23:03;1.90;;;0.63;;
61638;SDS011;47544;52.484;4.658;2024-03-02T00:23:15;2.13;;;0.73;;
61638;SDS011;47544;52.484;4.658;2024-03-02T00:23:27;2.38;;;0.65;;
61638;SDS011;47544;52.484;4.658;2024-03-02T00:23:39;1.83;;;0.60;;
61638;SDS011;47544;52.484;4.658;2024-03-02T00:23:50;1.98;;;0.60;;
61638;SDS011;47544;52.484;4.658;2024-03-02T00:24:04;1.58;;;0.50;;
61638;SDS011;47544;52.484;4.658;2024-03-02T00:24:20;1.45;;;0.52;;
61638;SDS011;47544;52.484;4.658;2024-03-02T00:24:33;1.83;;;0.50;;
61638;SDS011;47544;52.484;4.658;2024-03-02T00:24:44;2.20;;;0.50;;
61638;SDS011;47544;52.484;4.658;2024-03-02T00:24:55;2.55;;;0.50;;
61638;SDS011;47544;52.484;4.658;2024-03-02T00:25:07;1.92;;;0.50;;
61638;SDS011;47544;52.484;4.658;2024-03-02T00:25:21;2.40;;;0.50;;
61638;SDS011;47544;52.484;4.658;2024-03-02T00:25:38;2.40;;;0.50;;
61638;SDS011;47544;52.484;4.658;2024-03-02T00:25:52;2.95;;;0.52;;
61638;SDS011;47544;52.484;4.658;2024-03-02T00:26:04;2.80;;;0.63;;
61638;SDS011;47544;52.484;4.658;2024-03-02T00:26:15;1.67;;;0.55;;
61638;SDS011;47544;52.484;4.658;2024-03-02T00:26:26;1.98;;;0.55;;
61638;SDS011;47544;52.484;4.658;2024-03-02T00:26:37;1.95;;;0.55;;
61638;SDS011;47544;52.484;4.658;2024-03-02T00:26:48;1.92;;;0.60;;
61638;SDS011;47544;52.484;4.658;2024-03-02T00:26:59;1.58;;;0.60;;
61638;SDS011;47544;52.484;4.658;2024-03-02T00:27:12;1.88;;;0.60;;
61638;SDS011;47544;52.484;4.658;2024-03-02T00:27:25;2.33;;;0.50;;
61638;SDS011;47544;52.484;4.658;2024-03-02T00:27:37;2.40;;;0.50;;
61638;SDS011;47544;52.484;4.658;2024-03-02T00:27:48;2.08;;;0.52;;
61638;SDS011;47544;52.484;4.658;2024-03-02T00:27:59;2.05;;;0.60;;
61638;SDS011;47544;52.484;4.658;2024-03-02T00:28:16;2.00;;;0.60;;
61638;SDS011;47544;52.484;4.658;2024-03-02T00:28:29;2.17;;;0.55;;
61638;SDS011;47544;52.484;4.658;2024-03-02T00:28:40;2.00;;;0.50;;
61638;SDS011;47544;52.484;4.658;2024-03-02T00:28:54;1.38;;;0.40;;
61638;SDS011;47544;52.484;4.658;2024-03-02T00:29:07;1.25;;;0.40;;
61638;SDS011;47544;52.484;4.658;2024-03-02T00:29:24;1.60;;;0.40;;
61638;SDS011;47544;52.484;4.658;2024-03-02T00:29:36;1.77;;;0.47;;
61638;SDS011;47544;52.484;4.658;2024-03-02T00:29:47;1.45;;;0.50;;
61638;SDS011;47544;52.484;4.658;2024-03-02T00:29:59;2.47;;;0.60;;
61638;SDS011;47544;52.484;4.658;2024-03-02T00:30:13;2.58;;;0.50;;
61638;SDS011;47544;52.484;4.658;2024-03-02T00:30:50;1.77;;;0.50;;
61638;SDS011;47544;52.484;4.658;2024-03-02T00:31:02;1.35;;;0.50;;
61638;SDS011;47544;52.484;4.658;2024-03-02T00:31:14;2.05;;;0.47;;
61638;SDS011;47544;52.484;4.658;2024-03-02T00:31:26;2.45;;;0.50;;
61638;SDS011;47544;52.484;4.658;2024-03-02T00:31:37;2.67;;;0.40;;
61638;SDS011;47544;52.484;4.658;2024-03-02T00:31:50;2.40;;;0.50;;
61638;SDS011;47544;52.484;4.658;2024-03-02T00:32:01;1.80;;;0.50;;
61638;SDS011;47544;52.484;4.658;2024-03-02T00:32:12;1.77;;;0.50;;
61638;SDS011;47544;52.484;4.658;2024-03-02T00:32:24;1.55;;;0.55;;
61638;SDS011;47544;52.484;4.658;2024-03-02T00:32:36;1.63;;;0.50;;
61638;SDS011;47544;52.484;4.658;2024-03-02T00:32:48;1.42;;;0.45;;
61638;SDS011;47544;52.484;4.658;2024-03-02T00:33:05;1.40;;;0.40;;
61638;SDS011;47544;52.484;4.658;2024-03-02T00:33:17;1.60;;;0.50;;
61638;SDS011;47544;52.484;4.658;2024-03-02T00:33:30;1.73;;;0.50;;
61638;SDS011;47544;52.484;4.658;2024-03-02T00:33:42;2.28;;;0.50;;
61638;SDS011;47544;52.484;4.658;2024-03-02T00:33:57;1.85;;;0.40;;
61638;SDS011;47544;52.484;4.658;2024-03-02T00:34:12;1.45;;;0.40;;
61638;SDS011;47544;52.484;4.658;2024-03-02T00:34:24;1.50;;;0.40;;
61638;SDS011;47544;52.484;4.658;2024-03-02T00:34:35;1.25;;;0.40;;
61638;SDS011;47544;52.484;4.658;2024-03-02T00:34:46;1.13;;;0.40;;
61638;SDS011;47544;52.484;4.658;2024-03-02T00:34:57;1.50;;;0.40;;
61638;SDS011;47544;52.484;4.658;2024-03-02T00:35:08;1.55;;;0.40;;
61638;SDS011;47544;52.484;4.658;2024-03-02T00:35:20;1.48;;;0.30;;
61638;SDS011;47544;52.484;4.658;2024-03-02T00:35:33;1.77;;;0.40;;
61638;SDS011;47544;52.484;4.658;2024-03-02T00:35:44;1.75;;;0.40;;
61638;SDS011;47544;52.484;4.658;2024-03-02T00:35:55;1.92;;;0.50;;
61638;SDS011;47544;52.484;4.658;2024-03-02T00:36:07;1.90;;;0.50;;
61638;SDS011;47544;52.484;4.658;2024-03-02T00:36:22;1.52;;;0.45;;
61638;SDS011;47544;52.484;4.658;2024-03-02T00:36:33;0.85;;;0.30;;
61638;SDS011;47544;52.484;4.658;2024-03-02T00:36:44;1.17;;;0.40;;
61638;SDS011;47544;52.484;4.658;2024-03-02T00:36:56;1.77;;;0.40;;
61638;SDS011;47544;52.484;4.658;2024-03-02T00:37:08;1.63;;;0.32;;
61638;SDS011;47544;52.484;4.658;2024-03-02T00:37:19;1.90;;;0.38;;
61638;SDS011;47544;52.484;4.658;2024-03-02T00:37:30;1.40;;;0.40;;
61638;SDS011;47544;52.484;4.658;2024-03-02T00:37:41;1.27;;;0.40;;
61638;SDS011;47544;52.484;4.658;2024-03-02T00:37:53;1.17;;;0.40;;
61638;SDS011;47544;52.484;4.658;2024-03-02T00:38:05;1.73;;;0.30;;
61638;SDS011;47544;52.484;4.658;2024-03-02T00:38:16;1.90;;;0.30;;
61638;SDS011;47544;52.484;4.658;2024-03-02T00:38:27;2.10;;;0.30;;
61638;SDS011;47544;52.484;4.658;2024-03-02T00:38:42;2.05;;;0.40;;
61638;SDS011;47544;52.484;4.658;2024-03-02T00:38:54;2.00;;;0.43;;
61638;SDS011;47544;52.484;4.658;2024-03-02T00:39:05;1.48;;;0.50;;
61638;SDS011;47544;52.484;4.658;2024-03-02T00:39:18;1.55;;;0.50;;
61638;SDS011;47544;52.484;4.658;2024-03-02T00:39:29;1.42;;;0.40;;
61638;SDS011;47544;52.484;4.658;2024-03-02T00:39:40;1.23;;;0.37;;
61638;SDS011;47544;52.484;4.658;2024-03-02T00:39:51;0.60;;;0.20;;
61638;SDS011;47544;52.484;4.658;2024-03-02T00:40:02;0.75;;;0.30;;
61638;SDS011;47544;52.484;4.658;2024-03-02T00:40:14;1.30;;;0.30;;
61638;SDS011;47544;52.484;4.658;2024-03-02T00:40:27;1.55;;;0.30;;
61638;SDS011;47544;52.484;4.658;2024-03-02T00:40:38;1.02;;;0.30;;
61638;SDS011;47544;52.484;4.658;2024-03-02T00:40:49;0.82;;;0.30;;
61638;SDS011;47544;52.484;4.658;2024-03-02T00:41:04;0.60;;;0.28;;
61638;SDS011;47544;52.484;4.658;2024-03-02T00:41:15;0.95;;;0.35;;
61638;SDS011;47544;52.484;4.658;2024-03-02T00:41:29;1.23;;;0.40;;
61638;SDS011;47544;52.484;4.658;2024-03-02T00:41:40;1.45;;;0.40;;
61638;SDS011;47544;52.484;4.658;2024-03-02T00:41:53;1.50;;;0.43;;
61638;SDS011;47544;52.484;4.658;2024-03-02T00:42:04;1.48;;;0.40;;
61638;SDS011;47544;52.484;4.658;2024-03-02T00:42:16;1.33;;;0.40;;
61638;SDS011;47544;52.484;4.658;2024-03-02T00:42:27;1.60;;;0.40;;
61638;SDS011;47544;52.484;4.658;2024-03-02T00:42:38;2.15;;;0.40;;
61638;SDS011;47544;52.484;4.658;2024-03-02T00:42:50;1.90;;;0.38;;
61638;SDS011;47544;52.484;4.658;2024-03-02T00:43:01;1.20;;;0.30;;
61638;SDS011;47544;52.484;4.658;2024-03-02T00:43:23;1.50;;;0.30;;
61638;SDS011;47544;52.484;4.658;2024-03-02T00:43:44;1.50;;;0.40;;
61638;SDS011;47544;52.484;4.658;2024-03-02T00:44:00;1.35;;;0.38;;
61638;SDS011;47544;52.484;4.658;2024-03-02T00:44:12;1.08;;;0.40;;
61638;SDS011;47544;52.484;4.658;2024-03-02T00:44:23;1.70;;;0.40;;
61638;SDS011;47544;52.484;4.658;2024-03-02T00:44:35;1.58;;;0.40;;
61638;SDS011;47544;52.484;4.658;2024-03-02T00:44:48;1.80;;;0.47;;
61638;SDS011;47544;52.484;4.658;2024-03-02T00:44:59;1.70;;;0.50;;
61638;SDS011;47544;52.484;4.658;2024-03-02T00:45:10;2.20;;;0.60;;
61638;SDS011;47544;52.484;4.658;2024-03-02T00:45:21;2.17;;;0.68;;
61638;SDS011;47544;52.484;4.658;2024-03-02T00:45:31;2.88;;;0.68;;
61638;SDS011;47544;52.484;4.658;2024-03-02T00:45:42;2.75;;;0.60;;
61638;SDS011;47544;52.484;4.658;2024-03-02T00:45:53;2.60;;;0.50;;
61638;SDS011;47544;52.484;4.658;2024-03-02T00:46:04;1.95;;;0.50;;
61638;SDS011;47544;52.484;4.658;2024-03-02T00:46:16;1.50;;;0.47;;
61638;SDS011;47544;52.484;4.658;2024-03-02T00:46:30;2.03;;;0.50;;
61638;SDS011;47544;52.484;4.658;2024-03-02T00:46:42;2.78;;;0.50;;
61638;SDS011;47544;52.484;4.658;2024-03-02T00:46:54;2.22;;;0.40;;
61638;SDS011;47544;52.484;4.658;2024-03-02T00:47:05;1.52;;;0.40;;
61638;SDS011;47544;52.484;4.658;2024-03-02T00:47:16;1.30;;;0.40;;
61638;SDS011;47544;52.484;4.658;2024-03-02T00:47:27;1.48;;;0.35;;
61638;SDS011;47544;52.484;4.658;2024-03-02T00:47:38;1.27;;;0.30;;
61638;SDS011;47544;52.484;4.658;2024-03-02T00:47:51;1.35;;;0.40;;
61638;SDS011;47544;52.484;4.658;2024-03-02T00:48:02;0.90;;;0.30;;
61638;SDS011;47544;52.484;4.658;2024-03-02T00:48:15;1.67;;;0.52;;
61638;SDS011;47544;52.484;4.658;2024-03-02T00:48:26;1.80;;;0.60;;
61638;SDS011;47544;52.484;4.658;2024-03-02T00:48:37;2.38;;;0.60;;
61638;SDS011;47544;52.484;4.658;2024-03-02T00:48:51;2.05;;;0.45;;
61638;SDS011;47544;52.484;4.658;2024-03-02T00:49:05;2.25;;;0.50;;
61638;SDS011;47544;52.484;4.658;2024-03-02T00:49:17;2.70;;;0.45;;
61638;SDS011;47544;52.484;4.658;2024-03-02T00:49:30;2.17;;;0.50;;
61638;SDS011;47544;52.484;4.658;2024-03-02T00:49:41;1.92;;;0.60;;
61638;SDS011;47544;52.484;4.658;2024-03-02T00:49:52;1.40;;;0.52;;
61638;SDS011;47544;52.484;4.658;2024-03-02T00:50:03;1.10;;;0.43;;
61638;SDS011;47544;52.484;4.658;2024-03-02T00:50:14;0.80;;;0.30;;
61638;SDS011;47544;52.484;4.658;2024-03-02T00:50:25;1.08;;;0.30;;
61638;SDS011;47544;52.484;4.658;2024-03-02T00:50:36;1.17;;;0.40;;
61638;SDS011;47544;52.484;4.658;2024-03-02T00:50:49;1.13;;;0.40;;
61638;SDS011;47544;52.484;4.658;2024-03-02T00:51:02;0.90;;;0.40;;
61638;SDS011;47544;52.484;4.658;2024-03-02T00:51:14;1.17;;;0.40;;
61638;SDS011;47544;52.484;4.658;2024-03-02T00:51:26;1.40;;;0.40;;
61638;SDS011;47544;52.484;4.658;2024-03-02T00:51:37;1.08;;;0.38;;
61638;SDS011;47544;52.484;4.658;2024-03-02T00:51:49;1.08;;;0.40;;
61638;SDS011;47544;52.484;4.658;2024-03-02T00:52:01;1.20;;;0.40;;
61638;SDS011;47544;52.484;4.658;2024-03-02T00:52:12;1.13;;;0.40;;
61638;SDS011;47544;52.484;4.658;2024-03-02T00:52:24;1.27;;;0.40;;
61638;SDS011;47544;52.484;4.658;2024-03-02T00:52:35;1.60;;;0.50;;
61638;SDS011;47544;52.484;4.658;2024-03-02T00:52:46;1.48;;;0.40;;
61638;SDS011;47544;52.484;4.658;2024-03-02T00:52:59;1.42;;;0.30;;
61638;SDS011;47544;52.484;4.658;2024-03-02T00:53:12;1.30;;;0.30;;
61638;SDS011;47544;52.484;4.658;2024-03-02T00:53:24;1.08;;;0.30;;
61638;SDS011;47544;52.484;4.658;2024-03-02T00:53:36;0.80;;;0.40;;
61638;SDS011;47544;52.484;4.658;2024-03-02T00:53:48;0.93;;;0.47;;
61638;SDS011;47544;52.484;4.658;2024-03-02T00:54:00;0.80;;;0.40;;
61638;SDS011;47544;52.484;4.658;2024-03-02T00:54:11;1.48;;;0.30;;
61638;SDS011;47544;52.484;4.658;2024-03-02T00:54:25;2.08;;;0.40;;
61638;SDS011;47544;52.484;4.658;2024-03-02T00:54:36;1.65;;;0.40;;
61638;SDS011;47544;52.484;4.658;2024-03-02T00:54:47;1.55;;;0.40;;
61638;SDS011;47544;52.484;4.658;2024-03-02T00:54:58;1.10;;;0.40;;
61638;SDS011;47544;52.484;4.658;2024-03-02T00:55:09;0.90;;;0.40;;
61638;SDS011;47544;52.484;4.658;2024-03-02T00:55:20;1.02;;;0.40;;
61638;SDS011;47544;52.484;4.658;2024-03-02T00:55:32;1.27;;;0.45;;
61638;SDS011;47544;52.484;4.658;2024-03-02T00:55:46;1.30;;;0.40;;
61638;SDS011;47544;52.484;4.658;2024-03-02T00:55:58;1.23;;;0.40;;
61638;SDS011;47544;52.484;4.658;2024-03-02T00:56:10;1.00;;;0.30;;
61638;SDS011;47544;52.484;4.658;2024-03-02T00:56:22;0.75;;;0.30;;
61638;SDS011;47544;52.484;4.658;2024-03-02T00:56:33;0.93;;;0.30;;
61638;SDS011;47544;52.484;4.658;2024-03-02T00:56:45;1.00;;;0.30;;
61638;SDS011;47544;52.484;4.658;2024-03-02T00:56:57;1.05;;;0.32;;
61638;SDS011;47544;52.484;4.658;2024-03-02T00:57:09;1.30;;;0.40;;
61638;SDS011;47544;52.484;4.658;2024-03-02T00:57:21;1.15;;;0.40;;
61638;SDS011;47544;52.484;4.658;2024-03-02T00:57:33;1.00;;;0.40;;
61638;SDS011;47544;52.484;4.658;2024-03-02T00:57:45;1.25;;;0.45;;
61638;SDS011;47544;52.484;4.658;2024-03-02T00:57:56;1.42;;;0.40;;
61638;SDS011;47544;52.484;4.658;2024-03-02T00:58:06;1.70;;;0.45;;
61638;SDS011;47544;52.484;4.658;2024-03-02T00:58:17;1.67;;;0.52;;
61638;SDS011;47544;52.484;4.658;2024-03-02T00:58:28;1.65;;;0.60;;
61638;SDS011;47544;52.484;4.658;2024-03-02T00:58:39;1.25;;;0.50;;
61638;SDS011;47544;52.484;4.658;2024-03-02T00:58:50;0.95;;;0.50;;
61638;SDS011;47544;52.484;4.658;2024-03-02T00:59:02;1.00;;;0.50;;
61638;SDS011;47544;52.484;4.658;2024-03-02T00:59:14;1.00;;;0.50;;
61638;SDS011;47544;52.484;4.658;2024-03-02T00:59:25;0.85;;;0.40;;
61638;SDS011;47544;52.484;4.658;2024-03-02T00:59:36;1.00;;;0.40;;
61638;SDS011;47544;52.484;4.658;2024-03-02T00:59:47;1.30;;;0.47;;
61638;SDS011;47544;52.484;4.658;2024-03-02T00:59:59;1.48;;;0.40;;
61638;SDS011;47544;52.484;4.658;2024-03-02T01:00:10;1.60;;;0.40;;
61638;SDS011;47544;52.484;4.658;2024-03-02T01:00:25;1.67;;;0.40;;
61638;SDS011;47544;52.484;4.658;2024-03-02T01:00:36;1.48;;;0.47;;
61638;SDS011;47544;52.484;4.658;2024-03-02T01:00:47;1.92;;;0.40;;
61638;SDS011;47544;52.484;4.658;2024-03-02T01:00:58;2.05;;;0.40;;
61638;SDS011;47544;52.484;4.658;2024-03-02T01:01:10;1.65;;;0.43;;
61638;SDS011;47544;52.484;4.658;2024-03-02T01:01:21;1.65;;;0.50;;
61638;SDS011;47544;52.484;4.658;2024-03-02T01:01:33;2.05;;;0.60;;
61638;SDS011;47544;52.484;4.658;2024-03-02T01:01:44;1.90;;;0.50;;
61638;SDS011;47544;52.484;4.658;2024-03-02T01:01:55;2.28;;;0.60;;
61638;SDS011;47544;52.484;4.658;2024-03-02T01:02:05;2.30;;;0.50;;
61638;SDS011;47544;52.484;4.658;2024-03-02T01:02:17;2.05;;;0.50;;
61638;SDS011;47544;52.484;4.658;2024-03-02T01:02:30;1.90;;;0.50;;
61638;SDS011;47544;52.484;4.658;2024-03-02T01:02:41;1.73;;;0.50;;
61638;SDS011;47544;52.484;4.658;2024-03-02T01:02:56;1.45;;;0.40;;
61638;SDS011;47544;52.484;4.658;2024-03-02T01:03:07;1.15;;;0.40;;
61638;SDS011;47544;52.484;4.658;2024-03-02T01:03:18;1.40;;;0.43;;
61638;SDS011;47544;52.484;4.658;2024-03-02T01:03:29;1.60;;;0.50;;
61638;SDS011;47544;52.484;4.658;2024-03-02T01:03:41;0.93;;;0.40;;
61638;SDS011;47544;52.484;4.658;2024-03-02T01:03:52;0.88;;;0.30;;
61638;SDS011;47544;52.484;4.658;2024-03-02T01:04:03;0.60;;;0.30;;
61638;SDS011;47544;52.484;4.658;2024-03-02T01:04:14;0.82;;;0.30;;
61638;SDS011;47544;52.484;4.658;2024-03-02T01:04:26;0.80;;;0.40;;
61638;SDS011;47544;52.484;4.658;2024-03-02T01:04:37;1.25;;;0.45;;
61638;SDS011;47544;52.484;4.658;2024-03-02T01:04:48;1.67;;;0.50;;
61638;SDS011;47544;52.484;4.658;2024-03-02T01:04:59;2.00;;;0.52;;
61638;SDS011;47544;52.484;4.658;2024-03-02T01:05:10;1.88;;;0.50;;
61638;SDS011;47544;52.484;4.658;2024-03-02T01:05:21;1.77;;;0.60;;
61638;SDS011;47544;52.484;4.658;2024-03-02T01:05:32;2.00;;;0.60;;
61638;SDS011;47544;52.484;4.658;2024-03-02T01:05:43;2.47;;;0.60;;
61638;SDS011;47544;52.484;4.658;2024-03-02T01:05:54;2.25;;;0.50;;
61638;SDS011;47544;52.484;4.658;2024-03-02T01:06:05;1.58;;;0.40;;
61638;SDS011;47544;52.484;4.658;2024-03-02T01:06:17;1.15;;;0.40;;
61638;SDS011;47544;52.484;4.658;2024-03-02T01:06:29;1.35;;;0.60;;
61638;SDS011;47544;52.484;4.658;2024-03-02T01:06:42;1.63;;;0.63;;
61638;SDS011;47544;52.484;4.658;2024-03-02T01:06:53;1.65;;;0.60;;
61638;SDS011;47544;52.484;4.658;2024-03-02T01:07:04;1.35;;;0.50;;
61638;SDS011;47544;52.484;4.658;2024-03-02T01:07:15;1.90;;;0.55;;
61638;SDS011;47544;52.484;4.658;2024-03-02T01:07:26;2.05;;;0.60;;
61638;SDS011;47544;52.484;4.658;2024-03-02T01:07:37;2.00;;;0.60;;
61638;SDS011;47544;52.484;4.658;2024-03-02T01:07:48;1.27;;;0.50;;
61638;SDS011;47544;52.484;4.658;2024-03-02T01:08:00;1.08;;;0.50;;
61638;SDS011;47544;52.484;4.658;2024-03-02T01:08:11;2.30;;;0.50;;
61638;SDS011;47544;52.484;4.658;2024-03-02T01:08:22;3.28;;;0.65;;
61638;SDS011;47544;52.484;4.658;2024-03-02T01:08:33;2.95;;;0.60;;
61638;SDS011;47544;52.484;4.658;2024-03-02T01:08:44;1.83;;;0.60;;
61638;SDS011;47544;52.484;4.658;2024-03-02T01:08:56;1.50;;;0.60;;
61638;SDS011;47544;52.484;4.658;2024-03-02T01:09:07;1.73;;;0.60;;
61638;SDS011;47544;52.484;4.658;2024-03-02T01:09:18;1.67;;;0.60;;
61638;SDS011;47544;52.484;4.658;2024-03-02T01:09:29;1.25;;;0.60;;
61638;SDS011;47544;52.484;4.658;2024-03-02T01:09:40;1.65;;;0.60;;
61638;SDS011;47544;52.484;4.658;2024-03-02T01:09:51;2.03;;;0.60;;
61638;SDS011;47544;52.484;4.658;2024-03-02T01:10:03;2.10;;;0.60;;
61638;SDS011;47544;52.484;4.658;2024-03-02T01:10:14;1.75;;;0.63;;
61638;SDS011;47544;52.484;4.658;2024-03-02T01:10:25;1.60;;;0.60;;
61638;SDS011;47544;52.484;4.658;2024-03-02T01:10:36;1.88;;;0.60;;
61638;SDS011;47544;52.484;4.658;2024-03-02T01:10:47;1.50;;;0.50;;
61638;SDS011;47544;52.484;4.658;2024-03-02T01:10:58;1.23;;;0.40;;
61638;SDS011;47544;52.484;4.658;2024-03-02T01:11:09;0.73;;;0.30;;
61638;SDS011;47544;52.484;4.658;2024-03-02T01:11:22;0.85;;;0.30;;
61638;SDS011;47544;52.484;4.658;2024-03-02T01:11:33;0.90;;;0.30;;
61638;SDS011;47544;52.484;4.658;2024-03-02T01:11:44;1.45;;;0.40;;
61638;SDS011;47544;52.484;4.658;2024-03-02T01:11:55;1.40;;;0.50;;
61638;SDS011;47544;52.484;4.658;2024-03-02T01:12:06;2.28;;;0.60;;
61638;SDS011;47544;52.484;4.658;2024-03-02T01:12:17;2.15;;;0.60;;
61638;SDS011;47544;52.484;4.658;2024-03-02T01:12:28;2.22;;;0.50;;
61638;SDS011;47544;52.484;4.658;2024-03-02T01:12:39;2.10;;;0.50;;